sensor_id;sensor_type;location;lat;lon;timestamp;P1;durP1;ratioP1;P2;durP2;ratioP2
27533;SDS011;14973;51.460;7.008;2022-12-18T00:01:05;163.73;;;59.38;;
27533;SDS011;14973;51.460;7.008;2022-12-18T00:03:39;165.30;;;60.55;;
27533;SDS011;14973;51.460;7.008;2022-12-18T00:06:04;184.30;;;65.05;;
27533;SDS011;14973;51.460;7.008;2022-12-18T00:08:30;180.63;;;61.75;;
27533;SDS011;14973;51.460;7.008;2022-12-18T00:11:02;171.73;;;65.55;;
27533;SDS011;14973;51.460;7.008;2022-12-18T00:13:32;186.82;;;70.20;;
27533;SDS011;14973;51.460;7.008;2022-12-18T00:16:02;182.68;;;64.10;;
27533;SDS011;14973;51.460;7.008;2022-12-18T00:18:28;176.55;;;62.67;;
27533;SDS011;14973;51.460;7.008;2022-12-18T00:20:54;176.93;;;62.80;;
27533;SDS011;14973;51.460;7.008;2022-12-18T00:23:25;189.00;;;65.03;;
27533;SDS011;14973;51.460;7.008;2022-12-18T00:25:51;178.65;;;65.75;;
27533;SDS011;14973;51.460;7.008;2022-12-18T00:28:16;173.07;;;64.28;;
27533;SDS011;14973;51.460;7.008;2022-12-18T00:30:42;188.18;;;65.55;;
27533;SDS011;14973;51.460;7.008;2022-12-18T00:33:07;188.07;;;66.18;;
27533;SDS011;14973;51.460;7.008;2022-12-18T00:35:33;179.15;;;64.05;;
27533;SDS011;14973;51.460;7.008;2022-12-18T00:37:59;174.07;;;65.15;;
27533;SDS011;14973;51.460;7.008;2022-12-18T00:40:24;178.98;;;62.70;;
27533;SDS011;14973;51.460;7.008;2022-12-18T00:42:50;194.60;;;65.25;;
27533;SDS011;14973;51.460;7.008;2022-12-18T00:45:24;177.15;;;63.83;;
27533;SDS011;14973;51.460;7.008;2022-12-18T00:47:52;176.40;;;63.72;;
27533;SDS011;14973;51.460;7.008;2022-12-18T00:50:18;190.15;;;66.53;;
27533;SDS011;14973;51.460;7.008;2022-12-18T00:52:44;180.15;;;65.80;;
27533;SDS011;14973;51.460;7.008;2022-12-18T00:55:10;186.75;;;66.30;;
27533;SDS011;14973;51.460;7.008;2022-12-18T00:57:36;179.80;;;65.18;;
27533;SDS011;14973;51.460;7.008;2022-12-18T01:00:03;190.73;;;68.03;;
27533;SDS011;14973;51.460;7.008;2022-12-18T01:02:30;179.23;;;64.38;;
27533;SDS011;14973;51.460;7.008;2022-12-18T01:04:56;192.40;;;67.95;;
27533;SDS011;14973;51.460;7.008;2022-12-18T01:07:21;180.48;;;64.60;;
27533;SDS011;14973;51.460;7.008;2022-12-18T01:09:47;177.75;;;65.50;;
27533;SDS011;14973;51.460;7.008;2022-12-18T01:12:13;204.40;;;67.97;;
27533;SDS011;14973;51.460;7.008;2022-12-18T01:14:38;180.52;;;64.45;;
27533;SDS011;14973;51.460;7.008;2022-12-18T01:17:04;177.75;;;64.43;;
27533;SDS011;14973;51.460;7.008;2022-12-18T01:19:30;189.07;;;65.22;;
27533;SDS011;14973;51.460;7.008;2022-12-18T01:21:55;190.98;;;70.28;;
27533;SDS011;14973;51.460;7.008;2022-12-18T01:24:21;189.68;;;69.60;;
27533;SDS011;14973;51.460;7.008;2022-12-18T01:26:47;191.75;;;69.55;;
27533;SDS011;14973;51.460;7.008;2022-12-18T01:29:12;182.73;;;66.78;;
27533;SDS011;14973;51.460;7.008;2022-12-18T01:31:38;188.32;;;68.57;;
27533;SDS011;14973;51.460;7.008;2022-12-18T01:34:04;189.13;;;67.53;;
27533;SDS011;14973;51.460;7.008;2022-12-18T01:36:32;183.25;;;64.35;;
27533;SDS011;14973;51.460;7.008;2022-12-18T01:39:00;188.85;;;66.65;;
27533;SDS011;14973;51.460;7.008;2022-12-18T01:41:29;178.25;;;64.13;;
27533;SDS011;14973;51.460;7.008;2022-12-18T01:47:21;176.73;;;60.83;;
27533;SDS011;14973;51.460;7.008;2022-12-18T01:49:53;161.18;;;57.95;;
27533;SDS011;14973;51.460;7.008;2022-12-18T01:52:20;173.52;;;59.75;;
27533;SDS011;14973;51.460;7.008;2022-12-18T01:54:47;159.88;;;57.47;;
27533;SDS011;14973;51.460;7.008;2022-12-18T01:57:15;161.35;;;59.00;;
27533;SDS011;14973;51.460;7.008;2022-12-18T01:59:41;168.15;;;58.60;;
27533;SDS011;14973;51.460;7.008;2022-12-18T02:02:10;165.43;;;60.20;;
27533;SDS011;14973;51.460;7.008;2022-12-18T02:04:36;171.52;;;60.33;;
27533;SDS011;14973;51.460;7.008;2022-12-18T02:10:06;169.95;;;59.40;;
27533;SDS011;14973;51.460;7.008;2022-12-18T02:12:43;170.00;;;59.40;;
27533;SDS011;14973;51.460;7.008;2022-12-18T02:18:00;166.35;;;57.85;;
27533;SDS011;14973;51.460;7.008;2022-12-18T02:20:34;162.23;;;58.80;;
27533;SDS011;14973;51.460;7.008;2022-12-18T02:23:06;165.00;;;59.33;;
27533;SDS011;14973;51.460;7.008;2022-12-18T02:25:51;172.07;;;61.20;;
27533;SDS011;14973;51.460;7.008;2022-12-18T02:28:18;173.73;;;62.13;;
27533;SDS011;14973;51.460;7.008;2022-12-18T02:30:46;180.75;;;62.38;;
27533;SDS011;14973;51.460;7.008;2022-12-18T02:33:13;194.55;;;68.10;;
27533;SDS011;14973;51.460;7.008;2022-12-18T02:35:40;179.95;;;65.55;;
27533;SDS011;14973;51.460;7.008;2022-12-18T02:38:09;182.52;;;62.72;;
27533;SDS011;14973;51.460;7.008;2022-12-18T02:40:36;175.07;;;60.25;;
27533;SDS011;14973;51.460;7.008;2022-12-18T02:43:08;169.48;;;61.42;;
27533;SDS011;14973;51.460;7.008;2022-12-18T02:45:35;162.57;;;58.67;;
27533;SDS011;14973;51.460;7.008;2022-12-18T02:48:11;164.25;;;60.83;;
27533;SDS011;14973;51.460;7.008;2022-12-18T02:51:21;175.68;;;58.95;;
27533;SDS011;14973;51.460;7.008;2022-12-18T02:53:45;173.52;;;59.63;;
27533;SDS011;14973;51.460;7.008;2022-12-18T02:56:35;178.68;;;59.10;;
27533;SDS011;14973;51.460;7.008;2022-12-18T02:59:12;145.43;;;56.17;;
27533;SDS011;14973;51.460;7.008;2022-12-18T03:01:50;162.20;;;58.42;;
27533;SDS011;14973;51.460;7.008;2022-12-18T03:04:28;167.45;;;57.90;;
27533;SDS011;14973;51.460;7.008;2022-12-18T03:07:03;168.75;;;58.55;;
27533;SDS011;14973;51.460;7.008;2022-12-18T03:09:38;167.60;;;57.97;;
27533;SDS011;14973;51.460;7.008;2022-12-18T03:15:00;178.10;;;60.83;;
27533;SDS011;14973;51.460;7.008;2022-12-18T03:18:04;172.25;;;60.25;;
27533;SDS011;14973;51.460;7.008;2022-12-18T03:20:37;170.27;;;59.10;;
27533;SDS011;14973;51.460;7.008;2022-12-18T03:23:09;182.45;;;61.58;;
27533;SDS011;14973;51.460;7.008;2022-12-18T03:25:41;172.93;;;62.23;;
27533;SDS011;14973;51.460;7.008;2022-12-18T03:28:10;175.70;;;60.72;;
27533;SDS011;14973;51.460;7.008;2022-12-18T03:30:40;176.95;;;59.83;;
27533;SDS011;14973;51.460;7.008;2022-12-18T03:33:08;192.85;;;63.10;;
27533;SDS011;14973;51.460;7.008;2022-12-18T03:35:39;166.25;;;57.45;;
27533;SDS011;14973;51.460;7.008;2022-12-18T03:38:07;164.40;;;58.03;;
27533;SDS011;14973;51.460;7.008;2022-12-18T03:43:20;163.23;;;59.88;;
27533;SDS011;14973;51.460;7.008;2022-12-18T03:46:12;160.95;;;57.08;;
27533;SDS011;14973;51.460;7.008;2022-12-18T03:51:47;167.15;;;56.33;;
27533;SDS011;14973;51.460;7.008;2022-12-18T03:54:19;171.60;;;61.03;;
27533;SDS011;14973;51.460;7.008;2022-12-18T03:56:47;158.43;;;58.40;;
27533;SDS011;14973;51.460;7.008;2022-12-18T03:59:18;175.60;;;62.20;;
27533;SDS011;14973;51.460;7.008;2022-12-18T04:01:46;183.43;;;59.65;;
27533;SDS011;14973;51.460;7.008;2022-12-18T04:04:14;176.13;;;62.22;;
27533;SDS011;14973;51.460;7.008;2022-12-18T04:06:42;190.38;;;61.75;;
27533;SDS011;14973;51.460;7.008;2022-12-18T04:09:10;172.15;;;59.38;;
27533;SDS011;14973;51.460;7.008;2022-12-18T04:11:35;175.45;;;60.15;;
27533;SDS011;14973;51.460;7.008;2022-12-18T04:14:01;179.30;;;59.30;;
27533;SDS011;14973;51.460;7.008;2022-12-18T04:16:27;182.93;;;59.72;;
27533;SDS011;14973;51.460;7.008;2022-12-18T04:18:53;166.35;;;58.10;;
27533;SDS011;14973;51.460;7.008;2022-12-18T04:21:19;165.93;;;56.35;;
27533;SDS011;14973;51.460;7.008;2022-12-18T04:23:45;169.38;;;60.47;;
27533;SDS011;14973;51.460;7.008;2022-12-18T04:26:10;157.07;;;55.75;;
27533;SDS011;14973;51.460;7.008;2022-12-18T04:28:36;166.20;;;59.53;;
27533;SDS011;14973;51.460;7.008;2022-12-18T04:31:02;157.60;;;55.85;;
27533;SDS011;14973;51.460;7.008;2022-12-18T04:33:27;157.18;;;56.13;;
27533;SDS011;14973;51.460;7.008;2022-12-18T04:35:53;160.07;;;57.58;;
27533;SDS011;14973;51.460;7.008;2022-12-18T04:38:18;158.93;;;56.28;;
27533;SDS011;14973;51.460;7.008;2022-12-18T04:40:44;176.55;;;58.13;;
27533;SDS011;14973;51.460;7.008;2022-12-18T04:43:10;176.43;;;58.35;;
27533;SDS011;14973;51.460;7.008;2022-12-18T04:45:35;157.40;;;56.35;;
27533;SDS011;14973;51.460;7.008;2022-12-18T04:48:01;155.98;;;56.60;;
27533;SDS011;14973;51.460;7.008;2022-12-18T04:50:27;125.47;;;45.47;;
27533;SDS011;14973;51.460;7.008;2022-12-18T04:52:54;106.05;;;40.13;;
27533;SDS011;14973;51.460;7.008;2022-12-18T04:55:19;137.55;;;46.30;;
27533;SDS011;14973;51.460;7.008;2022-12-18T04:57:46;148.32;;;49.53;;
27533;SDS011;14973;51.460;7.008;2022-12-18T05:00:11;140.77;;;48.92;;
27533;SDS011;14973;51.460;7.008;2022-12-18T05:02:37;139.95;;;50.00;;
27533;SDS011;14973;51.460;7.008;2022-12-18T05:05:03;127.38;;;46.80;;
27533;SDS011;14973;51.460;7.008;2022-12-18T05:07:29;140.10;;;50.15;;
27533;SDS011;14973;51.460;7.008;2022-12-18T05:09:55;139.55;;;48.20;;
27533;SDS011;14973;51.460;7.008;2022-12-18T05:12:24;130.50;;;48.53;;
27533;SDS011;14973;51.460;7.008;2022-12-18T05:14:49;115.13;;;40.05;;
27533;SDS011;14973;51.460;7.008;2022-12-18T05:17:15;90.63;;;32.92;;
27533;SDS011;14973;51.460;7.008;2022-12-18T05:19:41;61.05;;;22.95;;
27533;SDS011;14973;51.460;7.008;2022-12-18T05:22:06;54.97;;;20.15;;
27533;SDS011;14973;51.460;7.008;2022-12-18T05:24:32;46.03;;;18.02;;
27533;SDS011;14973;51.460;7.008;2022-12-18T05:26:58;42.78;;;16.80;;
27533;SDS011;14973;51.460;7.008;2022-12-18T05:29:23;23.10;;;9.20;;
27533;SDS011;14973;51.460;7.008;2022-12-18T05:31:49;28.48;;;9.70;;
27533;SDS011;14973;51.460;7.008;2022-12-18T05:34:14;23.23;;;8.35;;
27533;SDS011;14973;51.460;7.008;2022-12-18T05:36:40;20.65;;;8.68;;
27533;SDS011;14973;51.460;7.008;2022-12-18T05:39:06;21.50;;;7.80;;
27533;SDS011;14973;51.460;7.008;2022-12-18T05:41:32;17.73;;;7.47;;
27533;SDS011;14973;51.460;7.008;2022-12-18T05:43:58;18.00;;;8.00;;
27533;SDS011;14973;51.460;7.008;2022-12-18T05:46:24;17.60;;;7.05;;
27533;SDS011;14973;51.460;7.008;2022-12-18T05:48:50;19.42;;;7.13;;
27533;SDS011;14973;51.460;7.008;2022-12-18T05:51:16;19.55;;;8.20;;
27533;SDS011;14973;51.460;7.008;2022-12-18T05:53:44;24.40;;;9.30;;
27533;SDS011;14973;51.460;7.008;2022-12-18T05:56:11;24.15;;;10.10;;
27533;SDS011;14973;51.460;7.008;2022-12-18T05:58:40;47.20;;;20.38;;
27533;SDS011;14973;51.460;7.008;2022-12-18T06:01:16;75.15;;;27.77;;
27533;SDS011;14973;51.460;7.008;2022-12-18T06:03:44;77.45;;;30.20;;
27533;SDS011;14973;51.460;7.008;2022-12-18T06:06:13;83.38;;;32.45;;
27533;SDS011;14973;51.460;7.008;2022-12-18T06:08:43;75.43;;;31.52;;
27533;SDS011;14973;51.460;7.008;2022-12-18T06:11:08;79.45;;;32.70;;
27533;SDS011;14973;51.460;7.008;2022-12-18T06:13:34;87.97;;;33.25;;
27533;SDS011;14973;51.460;7.008;2022-12-18T06:16:03;83.72;;;34.42;;
27533;SDS011;14973;51.460;7.008;2022-12-18T06:18:30;94.45;;;36.05;;
27533;SDS011;14973;51.460;7.008;2022-12-18T06:20:56;92.97;;;35.40;;
27533;SDS011;14973;51.460;7.008;2022-12-18T06:23:23;91.55;;;34.15;;
27533;SDS011;14973;51.460;7.008;2022-12-18T06:25:48;86.32;;;35.63;;
27533;SDS011;14973;51.460;7.008;2022-12-18T06:28:14;94.45;;;35.88;;
27533;SDS011;14973;51.460;7.008;2022-12-18T06:30:43;87.63;;;35.63;;
27533;SDS011;14973;51.460;7.008;2022-12-18T06:33:09;105.30;;;37.55;;
27533;SDS011;14973;51.460;7.008;2022-12-18T06:35:35;97.93;;;37.47;;
27533;SDS011;14973;51.460;7.008;2022-12-18T06:38:01;89.68;;;35.05;;
27533;SDS011;14973;51.460;7.008;2022-12-18T06:40:27;103.22;;;38.13;;
27533;SDS011;14973;51.460;7.008;2022-12-18T06:42:53;94.68;;;36.63;;
27533;SDS011;14973;51.460;7.008;2022-12-18T06:45:18;96.88;;;37.65;;
27533;SDS011;14973;51.460;7.008;2022-12-18T06:47:44;96.20;;;37.40;;
27533;SDS011;14973;51.460;7.008;2022-12-18T06:50:10;97.68;;;35.72;;
27533;SDS011;14973;51.460;7.008;2022-12-18T06:52:36;95.18;;;36.33;;
27533;SDS011;14973;51.460;7.008;2022-12-18T06:55:03;96.50;;;36.85;;
27533;SDS011;14973;51.460;7.008;2022-12-18T06:57:29;99.32;;;37.65;;
27533;SDS011;14973;51.460;7.008;2022-12-18T06:59:55;100.05;;;36.60;;
27533;SDS011;14973;51.460;7.008;2022-12-18T07:02:20;100.07;;;35.50;;
27533;SDS011;14973;51.460;7.008;2022-12-18T07:04:46;106.90;;;38.90;;
27533;SDS011;14973;51.460;7.008;2022-12-18T07:07:11;99.15;;;37.40;;
27533;SDS011;14973;51.460;7.008;2022-12-18T07:09:37;98.78;;;37.28;;
27533;SDS011;14973;51.460;7.008;2022-12-18T07:12:03;106.25;;;38.10;;
27533;SDS011;14973;51.460;7.008;2022-12-18T07:14:29;102.40;;;37.65;;
27533;SDS011;14973;51.460;7.008;2022-12-18T07:16:55;103.18;;;37.20;;
27533;SDS011;14973;51.460;7.008;2022-12-18T07:19:21;103.50;;;39.40;;
27533;SDS011;14973;51.460;7.008;2022-12-18T07:21:46;105.68;;;39.17;;
27533;SDS011;14973;51.460;7.008;2022-12-18T07:24:12;108.30;;;40.83;;
27533;SDS011;14973;51.460;7.008;2022-12-18T07:26:37;104.28;;;38.83;;
27533;SDS011;14973;51.460;7.008;2022-12-18T07:29:03;100.10;;;37.28;;
27533;SDS011;14973;51.460;7.008;2022-12-18T07:31:29;112.80;;;38.60;;
27533;SDS011;14973;51.460;7.008;2022-12-18T07:33:54;121.72;;;38.55;;
27533;SDS011;14973;51.460;7.008;2022-12-18T07:36:21;111.03;;;40.70;;
27533;SDS011;14973;51.460;7.008;2022-12-18T07:38:47;121.97;;;40.45;;
27533;SDS011;14973;51.460;7.008;2022-12-18T07:41:13;105.25;;;40.42;;
27533;SDS011;14973;51.460;7.008;2022-12-18T07:43:39;106.22;;;39.17;;
27533;SDS011;14973;51.460;7.008;2022-12-18T07:46:06;103.55;;;39.20;;
27533;SDS011;14973;51.460;7.008;2022-12-18T07:48:33;104.55;;;39.60;;
27533;SDS011;14973;51.460;7.008;2022-12-18T07:51:02;98.78;;;37.30;;
27533;SDS011;14973;51.460;7.008;2022-12-18T07:53:30;95.22;;;36.83;;
27533;SDS011;14973;51.460;7.008;2022-12-18T07:55:57;105.72;;;38.40;;
27533;SDS011;14973;51.460;7.008;2022-12-18T07:58:24;91.18;;;37.10;;
27533;SDS011;14973;51.460;7.008;2022-12-18T08:00:50;97.45;;;35.65;;
27533;SDS011;14973;51.460;7.008;2022-12-18T08:03:16;95.15;;;35.70;;
27533;SDS011;14973;51.460;7.008;2022-12-18T08:05:41;99.15;;;37.65;;
27533;SDS011;14973;51.460;7.008;2022-12-18T08:08:07;98.40;;;36.58;;
27533;SDS011;14973;51.460;7.008;2022-12-18T08:10:32;92.50;;;35.35;;
27533;SDS011;14973;51.460;7.008;2022-12-18T08:12:58;90.40;;;35.50;;
27533;SDS011;14973;51.460;7.008;2022-12-18T08:15:24;94.20;;;36.15;;
27533;SDS011;14973;51.460;7.008;2022-12-18T08:17:49;85.47;;;34.95;;
27533;SDS011;14973;51.460;7.008;2022-12-18T08:20:15;91.55;;;34.53;;
27533;SDS011;14973;51.460;7.008;2022-12-18T08:22:42;86.50;;;33.38;;
27533;SDS011;14973;51.460;7.008;2022-12-18T08:25:07;94.03;;;35.30;;
27533;SDS011;14973;51.460;7.008;2022-12-18T08:27:33;94.90;;;34.22;;
27533;SDS011;14973;51.460;7.008;2022-12-18T08:29:59;79.93;;;31.77;;
27533;SDS011;14973;51.460;7.008;2022-12-18T08:32:25;86.53;;;33.92;;
27533;SDS011;14973;51.460;7.008;2022-12-18T08:34:52;86.03;;;33.35;;
27533;SDS011;14973;51.460;7.008;2022-12-18T08:37:18;82.10;;;34.08;;
27533;SDS011;14973;51.460;7.008;2022-12-18T08:39:44;90.63;;;35.33;;
27533;SDS011;14973;51.460;7.008;2022-12-18T08:42:09;85.20;;;34.33;;
27533;SDS011;14973;51.460;7.008;2022-12-18T08:44:54;77.53;;;29.38;;
27533;SDS011;14973;51.460;7.008;2022-12-18T08:47:19;86.93;;;34.78;;
27533;SDS011;14973;51.460;7.008;2022-12-18T08:49:45;88.82;;;35.13;;
27533;SDS011;14973;51.460;7.008;2022-12-18T08:52:10;89.00;;;33.72;;
27533;SDS011;14973;51.460;7.008;2022-12-18T08:54:39;86.43;;;35.30;;
27533;SDS011;14973;51.460;7.008;2022-12-18T08:57:04;69.13;;;29.90;;
27533;SDS011;14973;51.460;7.008;2022-12-18T08:59:30;68.00;;;27.65;;
27533;SDS011;14973;51.460;7.008;2022-12-18T09:01:56;57.38;;;22.88;;
27533;SDS011;14973;51.460;7.008;2022-12-18T09:04:21;70.88;;;27.88;;
27533;SDS011;14973;51.460;7.008;2022-12-18T09:06:47;30.63;;;12.18;;
27533;SDS011;14973;51.460;7.008;2022-12-18T09:09:13;23.55;;;9.40;;
27533;SDS011;14973;51.460;7.008;2022-12-18T09:11:38;39.00;;;13.80;;
27533;SDS011;14973;51.460;7.008;2022-12-18T09:14:04;23.15;;;9.52;;
27533;SDS011;14973;51.460;7.008;2022-12-18T09:16:31;13.82;;;6.78;;
27533;SDS011;14973;51.460;7.008;2022-12-18T09:18:57;15.63;;;6.22;;
27533;SDS011;14973;51.460;7.008;2022-12-18T09:21:27;12.50;;;5.40;;
27533;SDS011;14973;51.460;7.008;2022-12-18T09:23:55;15.75;;;6.00;;
27533;SDS011;14973;51.460;7.008;2022-12-18T09:26:22;15.73;;;6.82;;
27533;SDS011;14973;51.460;7.008;2022-12-18T09:28:48;16.25;;;6.18;;
27533;SDS011;14973;51.460;7.008;2022-12-18T09:31:15;14.68;;;5.13;;
27533;SDS011;14973;51.460;7.008;2022-12-18T09:33:42;13.68;;;5.32;;
27533;SDS011;14973;51.460;7.008;2022-12-18T09:36:09;10.32;;;4.82;;
27533;SDS011;14973;51.460;7.008;2022-12-18T09:38:35;11.45;;;5.75;;
27533;SDS011;14973;51.460;7.008;2022-12-18T09:43:58;11.10;;;4.88;;
27533;SDS011;14973;51.460;7.008;2022-12-18T09:46:28;14.20;;;5.97;;
27533;SDS011;14973;51.460;7.008;2022-12-18T09:48:59;11.48;;;4.85;;
27533;SDS011;14973;51.460;7.008;2022-12-18T09:51:28;12.52;;;5.13;;
27533;SDS011;14973;51.460;7.008;2022-12-18T09:53:59;10.85;;;4.82;;
27533;SDS011;14973;51.460;7.008;2022-12-18T09:56:38;8.82;;;4.25;;
27533;SDS011;14973;51.460;7.008;2022-12-18T09:59:09;11.27;;;5.22;;
27533;SDS011;14973;51.460;7.008;2022-12-18T10:01:49;34.88;;;5.28;;
27533;SDS011;14973;51.460;7.008;2022-12-18T10:04:14;10.98;;;4.80;;
27533;SDS011;14973;51.460;7.008;2022-12-18T10:12:31;19.23;;;4.68;;
27533;SDS011;14973;51.460;7.008;2022-12-18T10:15:13;12.57;;;4.85;;
27533;SDS011;14973;51.460;7.008;2022-12-18T10:18:24;11.80;;;5.32;;
27533;SDS011;14973;51.460;7.008;2022-12-18T10:21:10;11.95;;;5.47;;
27533;SDS011;14973;51.460;7.008;2022-12-18T10:26:19;12.63;;;5.32;;
27533;SDS011;14973;51.460;7.008;2022-12-18T10:28:45;12.50;;;5.15;;
27533;SDS011;14973;51.460;7.008;2022-12-18T10:31:21;10.13;;;4.75;;
27533;SDS011;14973;51.460;7.008;2022-12-18T10:33:48;12.32;;;4.40;;
27533;SDS011;14973;51.460;7.008;2022-12-18T10:36:14;10.02;;;4.72;;
27533;SDS011;14973;51.460;7.008;2022-12-18T10:38:40;16.88;;;5.13;;
27533;SDS011;14973;51.460;7.008;2022-12-18T10:41:06;9.23;;;4.63;;
27533;SDS011;14973;51.460;7.008;2022-12-18T10:43:43;23.17;;;5.72;;
27533;SDS011;14973;51.460;7.008;2022-12-18T10:48:56;9.48;;;4.30;;
27533;SDS011;14973;51.460;7.008;2022-12-18T10:54:05;9.68;;;5.20;;
27533;SDS011;14973;51.460;7.008;2022-12-18T10:56:39;15.32;;;5.97;;
27533;SDS011;14973;51.460;7.008;2022-12-18T10:59:08;14.43;;;5.22;;
27533;SDS011;14973;51.460;7.008;2022-12-18T11:04:22;13.52;;;6.18;;
27533;SDS011;14973;51.460;7.008;2022-12-18T11:07:04;20.58;;;6.13;;
27533;SDS011;14973;51.460;7.008;2022-12-18T11:09:32;12.57;;;5.57;;
27533;SDS011;14973;51.460;7.008;2022-12-18T11:12:02;13.43;;;5.90;;
27533;SDS011;14973;51.460;7.008;2022-12-18T11:14:47;20.27;;;5.72;;
27533;SDS011;14973;51.460;7.008;2022-12-18T11:17:18;13.07;;;5.18;;
27533;SDS011;14973;51.460;7.008;2022-12-18T11:19:44;17.02;;;6.07;;
27533;SDS011;14973;51.460;7.008;2022-12-18T11:22:20;13.93;;;5.53;;
27533;SDS011;14973;51.460;7.008;2022-12-18T11:27:22;17.77;;;8.55;;
27533;SDS011;14973;51.460;7.008;2022-12-18T11:29:49;14.48;;;5.75;;
27533;SDS011;14973;51.460;7.008;2022-12-18T11:35:15;21.23;;;7.22;;
27533;SDS011;14973;51.460;7.008;2022-12-18T11:37:50;13.63;;;6.13;;
27533;SDS011;14973;51.460;7.008;2022-12-18T11:40:25;13.00;;;6.28;;
27533;SDS011;14973;51.460;7.008;2022-12-18T11:43:58;19.23;;;6.07;;
27533;SDS011;14973;51.460;7.008;2022-12-18T11:45:59;13.07;;;5.63;;
27533;SDS011;14973;51.460;7.008;2022-12-18T11:48:36;19.63;;;6.03;;
27533;SDS011;14973;51.460;7.008;2022-12-18T11:51:13;17.35;;;5.63;;
27533;SDS011;14973;51.460;7.008;2022-12-18T11:53:43;19.90;;;5.63;;
27533;SDS011;14973;51.460;7.008;2022-12-18T11:56:26;13.63;;;6.30;;
27533;SDS011;14973;51.460;7.008;2022-12-18T12:01:48;14.27;;;5.53;;
27533;SDS011;14973;51.460;7.008;2022-12-18T12:09:42;23.25;;;7.32;;
27533;SDS011;14973;51.460;7.008;2022-12-18T12:12:25;16.88;;;7.35;;
27533;SDS011;14973;51.460;7.008;2022-12-18T12:17:51;15.70;;;6.78;;
27533;SDS011;14973;51.460;7.008;2022-12-18T12:36:26;59.03;;;28.42;;
27533;SDS011;14973;51.460;7.008;2022-12-18T12:39:06;53.50;;;27.05;;
27533;SDS011;14973;51.460;7.008;2022-12-18T12:41:35;57.53;;;27.20;;
27533;SDS011;14973;51.460;7.008;2022-12-18T12:46:51;57.28;;;24.85;;
27533;SDS011;14973;51.460;7.008;2022-12-18T12:49:21;36.17;;;16.63;;
27533;SDS011;14973;51.460;7.008;2022-12-18T12:51:54;27.52;;;12.68;;
27533;SDS011;14973;51.460;7.008;2022-12-18T12:54:31;21.20;;;8.05;;
27533;SDS011;14973;51.460;7.008;2022-12-18T13:07:41;22.35;;;7.95;;
27533;SDS011;14973;51.460;7.008;2022-12-18T13:10:49;22.13;;;7.50;;
27533;SDS011;14973;51.460;7.008;2022-12-18T13:13:47;25.17;;;8.23;;
27533;SDS011;14973;51.460;7.008;2022-12-18T13:16:18;20.40;;;8.55;;
27533;SDS011;14973;51.460;7.008;2022-12-18T13:18:54;16.25;;;7.65;;
27533;SDS011;14973;51.460;7.008;2022-12-18T13:21:28;20.88;;;7.63;;
27533;SDS011;14973;51.460;7.008;2022-12-18T13:23:55;22.25;;;8.10;;
27533;SDS011;14973;51.460;7.008;2022-12-18T13:34:19;17.98;;;7.38;;
27533;SDS011;14973;51.460;7.008;2022-12-18T13:36:49;20.52;;;7.50;;
27533;SDS011;14973;51.460;7.008;2022-12-18T13:41:51;29.73;;;8.63;;
27533;SDS011;14973;51.460;7.008;2022-12-18T13:46:50;26.25;;;9.95;;
27533;SDS011;14973;51.460;7.008;2022-12-18T13:49:23;27.80;;;10.20;;
27533;SDS011;14973;51.460;7.008;2022-12-18T13:51:54;23.15;;;9.38;;
27533;SDS011;14973;51.460;7.008;2022-12-18T13:54:23;31.73;;;10.25;;
27533;SDS011;14973;51.460;7.008;2022-12-18T13:56:56;26.60;;;10.23;;
27533;SDS011;14973;51.460;7.008;2022-12-18T13:59:25;33.25;;;10.20;;
27533;SDS011;14973;51.460;7.008;2022-12-18T14:02:34;43.38;;;9.93;;
27533;SDS011;14973;51.460;7.008;2022-12-18T14:04:53;24.08;;;9.07;;
27533;SDS011;14973;51.460;7.008;2022-12-18T14:07:24;24.17;;;9.75;;
27533;SDS011;14973;51.460;7.008;2022-12-18T14:09:58;33.08;;;11.75;;
27533;SDS011;14973;51.460;7.008;2022-12-18T14:12:26;35.67;;;10.38;;
27533;SDS011;14973;51.460;7.008;2022-12-18T14:20:57;28.88;;;10.55;;
27533;SDS011;14973;51.460;7.008;2022-12-18T14:23:35;28.85;;;11.27;;
27533;SDS011;14973;51.460;7.008;2022-12-18T14:26:20;29.30;;;11.43;;
27533;SDS011;14973;51.460;7.008;2022-12-18T14:28:58;27.90;;;10.65;;
27533;SDS011;14973;51.460;7.008;2022-12-18T14:31:43;24.40;;;10.95;;
27533;SDS011;14973;51.460;7.008;2022-12-18T14:34:14;29.75;;;11.05;;
27533;SDS011;14973;51.460;7.008;2022-12-18T14:36:53;27.15;;;12.05;;
27533;SDS011;14973;51.460;7.008;2022-12-18T14:39:20;31.08;;;11.18;;
27533;SDS011;14973;51.460;7.008;2022-12-18T14:41:48;34.35;;;11.85;;
27533;SDS011;14973;51.460;7.008;2022-12-18T14:44:14;33.70;;;11.90;;
27533;SDS011;14973;51.460;7.008;2022-12-18T14:46:41;29.23;;;10.52;;
27533;SDS011;14973;51.460;7.008;2022-12-18T14:52:04;34.13;;;11.77;;
27533;SDS011;14973;51.460;7.008;2022-12-18T14:54:31;31.17;;;13.25;;
27533;SDS011;14973;51.460;7.008;2022-12-18T14:57:35;35.53;;;13.23;;
27533;SDS011;14973;51.460;7.008;2022-12-18T15:00:07;30.55;;;12.45;;
27533;SDS011;14973;51.460;7.008;2022-12-18T15:02:48;26.42;;;12.13;;
27533;SDS011;14973;51.460;7.008;2022-12-18T15:05:19;28.08;;;12.23;;
27533;SDS011;14973;51.460;7.008;2022-12-18T15:07:53;28.08;;;12.48;;
27533;SDS011;14973;51.460;7.008;2022-12-18T15:18:09;40.80;;;14.57;;
27533;SDS011;14973;51.460;7.008;2022-12-18T15:20:48;32.80;;;13.52;;
27533;SDS011;14973;51.460;7.008;2022-12-18T15:23:24;30.75;;;13.77;;
27533;SDS011;14973;51.460;7.008;2022-12-18T15:26:14;30.02;;;13.95;;
27533;SDS011;14973;51.460;7.008;2022-12-18T15:28:46;29.88;;;13.68;;
27533;SDS011;14973;51.460;7.008;2022-12-18T15:36:18;35.97;;;14.18;;
27533;SDS011;14973;51.460;7.008;2022-12-18T15:38:48;45.83;;;14.32;;
27533;SDS011;14973;51.460;7.008;2022-12-18T15:41:16;30.70;;;14.32;;
27533;SDS011;14973;51.460;7.008;2022-12-18T15:43:43;32.15;;;13.48;;
27533;SDS011;14973;51.460;7.008;2022-12-18T15:46:17;35.25;;;15.15;;
27533;SDS011;14973;51.460;7.008;2022-12-18T15:48:47;40.28;;;15.43;;
27533;SDS011;14973;51.460;7.008;2022-12-18T15:51:15;36.22;;;14.20;;
27533;SDS011;14973;51.460;7.008;2022-12-18T15:53:53;35.33;;;14.40;;
27533;SDS011;14973;51.460;7.008;2022-12-18T15:56:21;41.70;;;15.82;;
27533;SDS011;14973;51.460;7.008;2022-12-18T15:59:10;38.95;;;14.65;;
27533;SDS011;14973;51.460;7.008;2022-12-18T16:01:37;34.22;;;15.00;;
27533;SDS011;14973;51.460;7.008;2022-12-18T16:04:03;36.45;;;15.43;;
27533;SDS011;14973;51.460;7.008;2022-12-18T16:06:28;37.38;;;14.30;;
27533;SDS011;14973;51.460;7.008;2022-12-18T16:08:54;40.58;;;16.45;;
27533;SDS011;14973;51.460;7.008;2022-12-18T16:11:23;48.97;;;16.15;;
27533;SDS011;14973;51.460;7.008;2022-12-18T16:14:04;36.45;;;15.63;;
27533;SDS011;14973;51.460;7.008;2022-12-18T16:16:30;36.28;;;15.65;;
27533;SDS011;14973;51.460;7.008;2022-12-18T16:18:55;32.72;;;15.60;;
27533;SDS011;14973;51.460;7.008;2022-12-18T16:21:21;39.55;;;15.70;;
27533;SDS011;14973;51.460;7.008;2022-12-18T16:23:46;34.90;;;14.63;;
27533;SDS011;14973;51.460;7.008;2022-12-18T16:26:12;48.10;;;16.42;;
27533;SDS011;14973;51.460;7.008;2022-12-18T16:28:38;38.15;;;15.68;;
27533;SDS011;14973;51.460;7.008;2022-12-18T16:31:04;44.13;;;16.45;;